createdAt,value
2019-01-16T00:00:32.644Z,95790.00
2019-01-16T00:06:06.266Z,95784.00
2019-01-16T00:11:43.028Z,95779.00
2019-01-16T00:17:16.986Z,95788.00
2019-01-16T00:22:57.294Z,95784.00
2019-01-16T00:28:40.365Z,95783.00
2019-01-16T00:34:20.188Z,95786.00
2019-01-16T00:39:56.906Z,95774.00
2019-01-16T00:45:30.553Z,95772.00
2019-01-16T00:51:01.525Z,95768.00
2019-01-16T00:56:41.459Z,95772.00
2019-01-16T01:02:18.330Z,95752.00
2019-01-16T01:08:05.755Z,95753.00
2019-01-16T01:13:54.690Z,95759.00
2019-01-16T01:19:25.790Z,95760.00
2019-01-16T01:24:56.930Z,95757.00
2019-01-16T01:30:30.757Z,95748.00
2019-01-16T01:36:01.772Z,95758.00
2019-01-16T01:41:44.713Z,95755.00
2019-01-16T01:47:15.669Z,95738.00
2019-01-16T01:53:03.147Z,95736.00
2019-01-16T01:58:34.455Z,95722.00
2019-01-16T02:04:08.713Z,95710.00
2019-01-16T02:09:54.776Z,95722.00
2019-01-16T02:15:25.838Z,95716.00
2019-01-16T02:20:57.009Z,95715.00
2019-01-16T02:26:36.922Z,95715.00
2019-01-16T02:32:25.875Z,95708.00
2019-01-16T02:37:59.670Z,95703.00
2019-01-16T02:43:33.093Z,95684.00
2019-01-16T02:49:10.293Z,95676.00
2019-01-16T02:54:50.234Z,95669.00
2019-01-16T03:00:33.446Z,95667.00
2019-01-16T03:06:21.249Z,95665.00
2019-01-16T03:11:57.729Z,95657.00
2019-01-16T03:17:28.764Z,95653.00
2019-01-16T03:22:59.715Z,95652.00
2019-01-16T03:28:33.732Z,95642.00
2019-01-16T03:34:07.689Z,95637.00
2019-01-16T03:39:39.107Z,95631.00
2019-01-16T03:45:23.160Z,95620.00
2019-01-16T03:50:54.208Z,95625.00
2019-01-16T03:56:30.980Z,95622.00
2019-01-16T04:02:02.049Z,95619.00
2019-01-16T04:07:36.001Z,95610.00
2019-01-16T04:13:19.132Z,95614.00
2019-01-16T04:18:50.490Z,95606.00
2019-01-16T04:24:27.516Z,95613.00
2019-01-16T04:30:15.281Z,95619.00
2019-01-16T04:35:54.970Z,95618.00
2019-01-16T04:41:34.531Z,95620.00
2019-01-16T04:47:21.605Z,95619.00
2019-01-16T04:52:55.430Z,95597.00
2019-01-16T04:58:26.402Z,95596.00
2019-01-16T05:04:00.384Z,95591.00
2019-01-16T05:09:37.271Z,95578.00
2019-01-16T05:15:12.353Z,95579.00
2019-01-16T05:20:46.308Z,95573.00
2019-01-16T05:26:19.263Z,95581.00
2019-01-16T05:31:50.228Z,95576.00
2019-01-16T05:37:28.476Z,95570.00
2019-01-16T05:43:02.503Z,95577.00
2019-01-16T05:48:45.487Z,95571.00
2019-01-16T05:54:38.877Z,95564.00
2019-01-16T06:00:15.847Z,95564.00
2019-01-16T06:05:50.986Z,95566.00
2019-01-16T06:11:25.031Z,95566.00
2019-01-16T06:16:57.055Z,95558.00
2019-01-16T06:22:36.887Z,95552.00
2019-01-16T06:28:07.901Z,95541.00
2019-01-16T06:33:53.366Z,95542.00
2019-01-16T06:39:36.363Z,95558.00
2019-01-16T06:45:14.237Z,95554.00
2019-01-16T06:50:51.186Z,95548.00
2019-01-16T06:56:38.436Z,95539.00
2019-01-16T07:02:21.621Z,95542.00
2019-01-16T07:07:52.717Z,95535.00
2019-01-16T07:13:26.779Z,95549.00
2019-01-16T07:19:14.022Z,95554.00
2019-01-16T07:24:45.134Z,95539.00
2019-01-16T07:30:17.107Z,95548.00
2019-01-16T07:36:04.113Z,95541.00
2019-01-16T07:41:41.326Z,95527.00
2019-01-16T07:47:12.538Z,95523.00
2019-01-16T07:52:46.608Z,95518.00
2019-01-16T07:58:26.830Z,95513.00
2019-01-16T08:04:16.220Z,95514.00
2019-01-16T08:09:49.907Z,95504.00
2019-01-16T08:15:39.388Z,95492.00
2019-01-16T08:21:22.491Z,95502.00
2019-01-16T08:26:53.513Z,95516.00
2019-01-16T08:32:24.636Z,95513.00
2019-01-16T08:38:01.455Z,95515.00
2019-01-16T08:43:35.271Z,95512.00
2019-01-16T08:49:06.854Z,95505.00
2019-01-16T08:54:54.049Z,95499.00
2019-01-16T09:00:25.005Z,95489.00
2019-01-16T09:05:59.247Z,95505.00
2019-01-16T09:11:46.350Z,95510.00
2019-01-16T09:17:17.357Z,95481.00
2019-01-16T09:22:48.390Z,95488.00
2019-01-16T09:28:35.378Z,95481.00
2019-01-16T09:34:22.563Z,95483.00
2019-01-16T09:40:02.570Z,95471.00
2019-01-16T09:45:33.652Z,95468.00
2019-01-16T09:51:13.705Z,95464.00
2019-01-16T09:56:47.926Z,95463.00
2019-01-16T10:02:30.868Z,95441.00
2019-01-16T10:08:04.581Z,95439.00
2019-01-16T10:13:47.502Z,95416.00
2019-01-16T10:19:23.293Z,95419.00
2019-01-16T10:24:54.248Z,95402.00
2019-01-16T10:30:31.106Z,95419.00
2019-01-16T10:36:02.234Z,95403.00
2019-01-16T10:41:49.530Z,95389.00
2019-01-16T10:47:37.014Z,95379.00
2019-01-16T10:53:08.047Z,95374.00
2019-01-16T10:58:45.028Z,95361.00
2019-01-16T11:04:16.175Z,95357.00
2019-01-16T11:09:47.241Z,95341.00
2019-01-16T11:15:18.341Z,95345.00
2019-01-16T11:20:55.225Z,95335.00
2019-01-16T11:26:26.411Z,95331.00
2019-01-16T11:32:21.637Z,95330.00
2019-01-16T11:37:55.436Z,95322.00
2019-01-16T11:43:36.254Z,95305.00
2019-01-16T11:49:10.174Z,95294.00
2019-01-16T11:54:41.333Z,95292.00
2019-01-16T12:00:21.520Z,95289.00
2019-01-16T12:05:58.487Z,95268.00
2019-01-16T12:11:29.558Z,95274.00
2019-01-16T12:17:12.617Z,95261.00
2019-01-16T12:22:49.747Z,95252.00
2019-01-16T12:28:20.842Z,95244.00
2019-01-16T12:33:51.822Z,95242.00
2019-01-16T12:39:22.908Z,95233.00
2019-01-16T12:45:06.307Z,95221.00
2019-01-16T12:50:37.834Z,95204.00
2019-01-16T12:56:20.065Z,95187.00
2019-01-16T13:01:53.709Z,95194.00
2019-01-16T13:07:24.867Z,95187.00
2019-01-16T13:12:58.552Z,95191.00
2019-01-16T13:18:41.579Z,95191.00
2019-01-16T13:24:18.533Z,95179.00
2019-01-16T13:29:49.595Z,95172.00
2019-01-16T13:35:20.699Z,95169.00
2019-01-16T13:41:04.044Z,95165.00
2019-01-16T13:46:50.027Z,95147.00
2019-01-16T13:52:27.134Z,95152.00
2019-01-16T13:58:14.213Z,95147.00
2019-01-16T14:04:01.410Z,95140.00
2019-01-16T14:09:35.552Z,95134.00
2019-01-16T14:15:16.392Z,95132.00
2019-01-16T14:21:02.446Z,95135.00
2019-01-16T14:26:33.575Z,95126.00
2019-01-16T14:32:04.722Z,95122.00
2019-01-16T14:37:36.310Z,95118.00
2019-01-16T14:43:10.397Z,95118.00
2019-01-16T14:48:57.838Z,95103.00
2019-01-16T14:54:44.380Z,95094.00
2019-01-16T15:00:19.104Z,95101.00
2019-01-16T15:05:59.537Z,95078.00
2019-01-16T15:11:42.444Z,95092.00
2019-01-16T15:17:13.627Z,95089.00
2019-01-16T15:22:44.909Z,95079.00
2019-01-16T15:28:18.951Z,95074.00
2019-01-16T15:34:02.100Z,95080.00
2019-01-16T15:39:33.202Z,95073.00
2019-01-16T15:45:04.279Z,95069.00
2019-01-16T15:50:40.843Z,95057.00
2019-01-16T15:56:18.165Z,95058.00
2019-01-16T16:02:06.347Z,95044.00
2019-01-16T16:07:54.590Z,95037.00
2019-01-16T16:13:37.137Z,95028.00
2019-01-16T16:19:26.894Z,95030.00
2019-01-16T16:25:04.693Z,95026.00
2019-01-16T16:30:38.415Z,95011.00
2019-01-16T16:36:12.433Z,95018.00
2019-01-16T16:41:48.701Z,95014.00
2019-01-16T16:47:26.005Z,95017.00
2019-01-16T16:53:00.108Z,95006.00
2019-01-16T16:58:47.109Z,95004.00
2019-01-16T17:04:25.264Z,94991.00
2019-01-16T17:09:59.329Z,94993.00
2019-01-16T17:15:36.692Z,94979.00
2019-01-16T17:21:17.015Z,94979.00
2019-01-16T17:26:50.587Z,94971.00
2019-01-16T17:32:21.738Z,94970.00
2019-01-16T17:37:52.829Z,94969.00
2019-01-16T17:43:32.482Z,94957.00
2019-01-16T17:49:09.809Z,94955.00
2019-01-16T17:54:41.753Z,94959.00
2019-01-16T18:00:24.691Z,94961.00
2019-01-16T18:06:01.526Z,94960.00
2019-01-16T18:11:48.134Z,94954.00
2019-01-16T18:17:19.184Z,94964.00
2019-01-16T18:22:50.190Z,94955.00
2019-01-16T18:28:24.398Z,94953.00
2019-01-16T18:33:55.649Z,94945.00
2019-01-16T18:39:45.034Z,94945.00
2019-01-16T18:45:21.835Z,94942.00
2019-01-16T18:50:55.637Z,94941.00
2019-01-16T18:56:35.327Z,94945.00
2019-01-16T19:02:07.137Z,94951.00
2019-01-16T19:07:50.630Z,94941.00
2019-01-16T19:13:33.594Z,94942.00
2019-01-16T19:19:21.081Z,94935.00
2019-01-16T19:25:02.282Z,94930.00
2019-01-16T19:30:36.238Z,94929.00
2019-01-16T19:36:10.348Z,94933.00
2019-01-16T19:41:41.744Z,94928.00
2019-01-16T19:47:29.262Z,94922.00
2019-01-16T19:53:16.550Z,94928.00
2019-01-16T19:59:03.010Z,94924.00
2019-01-16T20:04:50.259Z,94927.00
2019-01-16T20:10:24.586Z,94926.00
2019-01-16T20:15:55.751Z,94928.00
2019-01-16T20:21:30.035Z,94921.00
2019-01-16T20:27:01.154Z,94922.00
2019-01-16T20:32:35.309Z,94921.00
2019-01-16T20:38:12.111Z,94918.00
2019-01-16T20:44:01.453Z,94913.00
2019-01-16T20:49:44.895Z,94902.00
2019-01-16T20:55:19.155Z,94893.00
2019-01-16T21:01:02.158Z,94902.00
2019-01-16T21:06:48.308Z,94895.00
2019-01-16T21:12:35.547Z,94892.00
2019-01-16T21:18:12.832Z,94888.00
2019-01-16T21:23:55.949Z,94879.00
2019-01-16T21:29:32.870Z,94882.00
2019-01-16T21:35:04.028Z,94872.00
2019-01-16T21:40:41.252Z,94873.00
2019-01-16T21:46:28.705Z,94864.00
2019-01-16T21:52:05.956Z,94864.00
2019-01-16T21:57:46.022Z,94866.00
2019-01-16T22:09:04.776Z,94853.00
2019-01-16T22:14:39.311Z,94858.00
2019-01-16T22:20:17.591Z,94846.00
2019-01-16T22:25:58.518Z,94841.00
2019-01-16T22:31:38.185Z,94837.00
2019-01-16T22:37:15.578Z,94831.00
2019-01-16T22:42:55.868Z,94821.00
2019-01-16T22:48:32.904Z,94819.00
2019-01-16T22:54:08.231Z,94815.00
2019-01-16T22:59:39.392Z,94810.00
2019-01-16T23:05:10.486Z,94805.00
2019-01-16T23:10:41.683Z,94799.00
2019-01-16T23:16:15.508Z,94795.00
2019-01-16T23:22:04.889Z,94798.00
2019-01-16T23:27:52.095Z,94788.00
2019-01-16T23:33:29.196Z,94788.00
2019-01-16T23:39:16.159Z,94778.00
2019-01-16T23:44:56.205Z,94776.00
2019-01-16T23:50:30.023Z,94771.00
2019-01-16T23:56:01.030Z,94771.00
